Main page
METAR-TAF:

METAR-TAF

Airports :

Islay, Scotland

Islay Airport

latitude: 55-40-55N, longitude: 006-15-24W, elevation: 16 m

Current weather observation

The report was made 50 minutes ago, at 23:20 UTC
Wind 14 kt from the Southeast, varying between East/Southeast and South
Temperature 14°C
Humidity 94%
Pressure 1013 hPa
Visibility 10 km or more

METAR: EGPI 192320Z AUTO 14014KT 110V170 9999 FEW019/// 14/13 Q1013

Time: 01:10 (00:10 UTC)

Forecast

The report was made 10 hours and 12 minutes ago, at 13:58 UTC
Forecast valid from 19 at 15 UTC to 19 at 18 UTC
Wind 12 kt from the South/Southeast
Visibility 10 km or more
Few clouds at a height of 1500 ft
Broken clouds at a height of 2500 ft

TAF: EGPI 191358Z 1915/1918 16012KT 9999 FEW015 BKN025

Weather observations and forecasts of more than 4000 airports (METAR and TAF reports).

The available stations are represented by yellow and red dots on the map.

Hover mouse over dot to see the name of the station.

Then click to see weather observations and forecasts.

To change the map : click on the green buttons with a black cross to zoom in, on the green button with a dash to zoom out, or on the green arrows for adjacent maps.


METAR-TAF: